Time;durP1;ratioP1;P1;durP2;ratioP2;P2;SDS_P1;SDS_P2;PMS_P1;PMS_P2;Temp;Humidity;BMP_temperature;BMP_pressure;BME280_temperature;BME280_humidity;BME280_pressure;Samples;Min_cycle;Max_cycle;Signal;HPM_P1;HPM_P2
2023/08/26 05:35:08;;;;;;;12.52;11.32;;;;;;;;;;6295347;22;20033;-94
2023/08/26 05:37:33;;;;;;;11.00;10.00;;;;;;;;;;6338059;22;20041;-91
2023/08/26 05:40:00;;;;;;;11.40;10.30;;;;;;;;;;6316746;22;19992;-91
2023/08/26 05:42:26;;;;;;;12.15;10.93;;;;;;;;;;6286485;22;20011;-93
2023/08/26 05:44:51;;;;;;;11.65;10.55;;;;;;;;;;6283462;22;20375;-94
2023/08/26 05:47:16;;;;;;;12.20;11.00;;;;;;;;;;6283273;22;19995;-93
2023/08/26 05:49:42;;;;;;;11.50;10.38;;;;;;;;;;6283630;22;20007;-92
2023/08/26 05:52:07;;;;;;;12.30;11.00;;;;;;;;;;6283271;22;20033;-92
2023/08/26 05:54:33;;;;;;;12.43;11.20;;;;;;;;;;6257963;22;20038;-95
2023/08/26 05:56:58;;;;;;;11.77;10.70;;;;;;;;;;6310911;22;20004;-91
2023/08/26 05:59:24;;;;;;;12.15;10.70;;;;;;;;;;6285935;22;20437;-88
2023/08/26 06:01:49;;;;;;;11.93;10.73;;;;;;;;;;6309784;22;20011;-88
2023/08/26 06:04:15;;;;;;;12.30;11.10;;;;;;;;;;6284232;22;20014;-89
2023/08/26 06:06:40;;;;;;;11.90;10.70;;;;;;;;;;6310096;22;20330;-89
2023/08/26 06:09:05;;;;;;;11.10;10.02;;;;;;;;;;6283321;22;20007;-91
2023/08/26 06:11:31;;;;;;;11.45;10.38;;;;;;;;;;6282920;22;20090;-88
2023/08/26 06:13:58;;;;;;;11.07;10.07;;;;;;;;;;6309510;22;20003;-88
2023/08/26 06:16:23;;;;;;;12.02;10.75;;;;;;;;;;6310457;22;20434;-90
2023/08/26 06:18:49;;;;;;;11.90;10.70;;;;;;;;;;6309857;22;19999;-86
2023/08/26 06:21:15;;;;;;;11.07;10.18;;;;;;;;;;6282387;22;20006;-89
2023/08/26 06:23:41;;;;;;;10.43;9.38;;;;;;;;;;6282127;22;20086;-88
2023/08/26 06:26:06;;;;;;;11.45;10.35;;;;;;;;;;6283032;22;20041;-89
2023/08/26 06:28:32;;;;;;;13.95;10.30;;;;;;;;;;6282678;22;20003;-89
2023/08/26 06:30:59;;;;;;;12.25;11.15;;;;;;;;;;6310069;22;20003;-91
2023/08/26 06:33:25;;;;;;;12.23;11.13;;;;;;;;;;6282044;22;20422;-89
2023/08/26 06:35:51;;;;;;;11.68;10.57;;;;;;;;;;6281786;22;20090;-87
2023/08/26 06:38:16;;;;;;;12.30;11.00;;;;;;;;;;6309057;22;20086;-89
2023/08/26 06:40:42;;;;;;;11.77;10.57;;;;;;;;;;6309270;22;20003;-92
2023/08/26 06:43:07;;;;;;;12.02;10.93;;;;;;;;;;6282410;22;20090;-91
2023/08/26 06:45:33;;;;;;;11.18;10.13;;;;;;;;;;6282087;22;20011;-87
2023/08/26 06:47:58;;;;;;;12.95;11.75;;;;;;;;;;6282677;22;20090;-91
2023/08/26 06:50:24;;;;;;;11.15;10.18;;;;;;;;;;6282873;22;20089;-93
2023/08/26 06:52:50;;;;;;;12.00;10.80;;;;;;;;;;6282180;22;19999;-92
2023/08/26 06:55:18;;;;;;;12.15;11.02;;;;;;;;;;6282532;22;20086;-93
2023/08/26 06:57:45;;;;;;;11.48;10.38;;;;;;;;;;6282464;22;20102;-93
2023/08/26 07:00:12;;;;;;;11.63;10.63;;;;;;;;;;6309923;22;20002;-92
2023/08/26 07:02:38;;;;;;;11.90;10.73;;;;;;;;;;6282266;22;20032;-89
2023/08/26 07:05:04;;;;;;;11.40;10.40;;;;;;;;;;6309352;22;20057;-89
2023/08/26 07:07:29;;;;;;;11.60;10.55;;;;;;;;;;6282269;22;20518;-89
2023/08/26 07:09:55;;;;;;;12.80;11.50;;;;;;;;;;6281924;22;20027;-88
2023/08/26 07:12:20;;;;;;;11.90;10.70;;;;;;;;;;6282421;22;20034;-90
2023/08/26 07:14:46;;;;;;;11.57;10.48;;;;;;;;;;6283290;22;20007;-92
2023/08/26 07:17:12;;;;;;;11.70;10.50;;;;;;;;;;6282224;22;20434;-92
2023/08/26 07:19:38;;;;;;;12.10;10.90;;;;;;;;;;6282087;22;19999;-93
2023/08/26 07:22:03;;;;;;;12.43;11.23;;;;;;;;;;6309481;22;20006;-94
2023/08/26 07:24:29;;;;;;;12.38;11.10;;;;;;;;;;6309561;22;20109;-93
2023/08/26 07:26:54;;;;;;;11.80;10.60;;;;;;;;;;6282435;22;20471;-95
2023/08/26 07:29:20;;;;;;;11.93;10.77;;;;;;;;;;6282526;22;20011;-93
2023/08/26 07:31:45;;;;;;;12.77;11.57;;;;;;;;;;6282471;22;19999;-95
2023/08/26 07:34:11;;;;;;;13.07;11.88;;;;;;;;;;6284156;22;20007;-92
2023/08/26 07:36:36;;;;;;;12.18;11.02;;;;;;;;;;6285102;22;20444;-93
2023/08/26 07:39:03;;;;;;;11.77;10.60;;;;;;;;;;6312300;22;20025;-88
2023/08/26 07:41:28;;;;;;;11.93;10.73;;;;;;;;;;6281344;22;20421;-87
2023/08/26 07:43:53;;;;;;;12.02;10.82;;;;;;;;;;6281539;22;20010;-87
2023/08/26 07:46:22;;;;;;;12.82;11.63;;;;;;;;;;6281313;22;19995;-87
2023/08/26 07:48:48;;;;;;;11.57;10.57;;;;;;;;;;6281145;22;20007;-87
2023/08/26 07:51:14;;;;;;;12.40;11.13;;;;;;;;;;6281367;22;20073;-87
2023/08/26 07:53:39;;;;;;;12.38;11.05;;;;;;;;;;6308441;22;20422;-87
2023/08/26 07:56:05;;;;;;;12.65;11.35;;;;;;;;;;6281236;22;20011;-87
2023/08/26 07:58:30;;;;;;;12.35;11.25;;;;;;;;;;6308448;22;20429;-86
2023/08/26 08:00:55;;;;;;;12.00;10.90;;;;;;;;;;6308437;22;20105;-87
2023/08/26 08:03:21;;;;;;;12.18;11.07;;;;;;;;;;6281315;22;20069;-90
2023/08/26 08:05:47;;;;;;;11.50;10.50;;;;;;;;;;6308458;22;20003;-86
2023/08/26 08:08:12;;;;;;;11.85;10.85;;;;;;;;;;6308663;22;20030;-91
2023/08/26 08:10:38;;;;;;;12.43;11.30;;;;;;;;;;6309475;22;20039;-92
2023/08/26 08:13:04;;;;;;;11.63;10.63;;;;;;;;;;6282089;22;20010;-96
2023/08/26 08:15:30;;;;;;;12.10;11.05;;;;;;;;;;6282268;22;20007;-95
2023/08/26 08:17:55;;;;;;;11.93;10.73;;;;;;;;;;6309288;22;20006;-95
2023/08/26 08:20:21;;;;;;;11.65;10.52;;;;;;;;;;6282320;22;20019;-92
2023/08/26 08:22:46;;;;;;;11.73;10.73;;;;;;;;;;6285110;22;20003;-96
2023/08/26 08:25:12;;;;;;;11.27;10.30;;;;;;;;;;6262219;22;20015;-95
2023/08/26 08:27:39;;;;;;;12.32;11.20;;;;;;;;;;6309371;22;19999;-95
2023/08/26 08:30:05;;;;;;;12.05;11.00;;;;;;;;;;6281944;22;20369;-95
2023/08/26 08:32:32;;;;;;;11.98;10.85;;;;;;;;;;6282257;22;20082;-90
2023/08/26 08:34:58;;;;;;;11.93;10.73;;;;;;;;;;6282718;22;20027;-89
2023/08/26 08:37:24;;;;;;;12.00;10.90;;;;;;;;;;6283366;22;20074;-95
2023/08/26 08:39:49;;;;;;;12.30;11.23;;;;;;;;;;6283512;22;20013;-93
2023/08/26 08:42:16;;;;;;;11.85;10.63;;;;;;;;;;6282009;22;20010;-88
2023/08/26 08:44:43;;;;;;;12.32;11.23;;;;;;;;;;6281485;22;20092;-89
2023/08/26 08:47:09;;;;;;;11.88;10.77;;;;;;;;;;6281550;22;19999;-90
2023/08/26 08:49:36;;;;;;;11.93;10.82;;;;;;;;;;6281544;22;20010;-90
2023/08/26 08:52:03;;;;;;;12.55;11.35;;;;;;;;;;6280944;22;20008;-87
2023/08/26 08:54:29;;;;;;;12.75;11.48;;;;;;;;;;6280714;22;20007;-89
2023/08/26 08:56:56;;;;;;;11.93;10.82;;;;;;;;;;6281243;22;20006;-89
2023/08/26 11:35:18;;;;;;;11.57;10.30;;;;;;;;;;6300306;22;20303;-84
2023/08/26 11:37:47;;;;;;;10.88;9.90;;;;;;;;;;6308616;22;20061;-85
2023/08/26 11:40:13;;;;;;;10.93;9.93;;;;;;;;;;6306314;22;20378;-86
2023/08/26 11:42:41;;;;;;;9.70;8.77;;;;;;;;;;6284831;22;20016;-85
2023/08/26 11:45:12;;;;;;;9.70;8.80;;;;;;;;;;6275525;22;20386;-85
2023/08/26 11:47:40;;;;;;;9.85;8.77;;;;;;;;;;6277278;22;20003;-85
2023/08/26 11:50:06;;;;;;;9.55;8.77;;;;;;;;;;6275695;22;20007;-85
2023/08/26 11:52:33;;;;;;;9.40;8.52;;;;;;;;;;6277324;22;20011;-84
2023/08/26 11:55:00;;;;;;;10.07;8.93;;;;;;;;;;6277249;22;20078;-85
2023/08/26 11:57:26;;;;;;;10.20;9.30;;;;;;;;;;6275616;22;20387;-85
2023/08/26 11:59:51;;;;;;;9.48;8.55;;;;;;;;;;6277200;22;20003;-85
2023/08/26 12:02:24;;;;;;;9.00;8.20;;;;;;;;;;6276875;22;20000;-84
2023/08/26 12:04:58;;;;;;;10.02;9.02;;;;;;;;;;6276041;22;19999;-84
2023/08/26 12:07:29;;;;;;;12.15;10.95;;;;;;;;;;6276924;22;20041;-84
2023/08/26 12:09:55;;;;;;;11.55;10.63;;;;;;;;;;6277124;22;20003;-84
2023/08/26 12:12:21;;;;;;;12.75;11.45;;;;;;;;;;6276889;22;20000;-84
2023/08/26 12:14:47;;;;;;;12.32;11.13;;;;;;;;;;6276998;22;20006;-84
2023/08/26 12:17:14;;;;;;;12.93;11.63;;;;;;;;;;6277054;22;19995;-84
2023/08/26 12:19:41;;;;;;;12.50;11.30;;;;;;;;;;6277075;22;20098;-84
2023/08/26 12:22:08;;;;;;;11.65;10.65;;;;;;;;;;6276958;22;20000;-84
2023/08/26 12:24:36;;;;;;;14.18;11.27;;;;;;;;;;6277398;22;20011;-84
2023/08/26 12:27:09;;;;;;;11.98;10.93;;;;;;;;;;6277220;22;20429;-83
2023/08/26 12:29:35;;;;;;;12.45;11.35;;;;;;;;;;6276889;22;20084;-85
2023/08/26 12:32:00;;;;;;;12.07;11.00;;;;;;;;;;6277012;22;20065;-83
2023/08/26 12:34:26;;;;;;;10.80;9.90;;;;;;;;;;6277044;22;20426;-84
2023/08/26 12:36:51;;;;;;;11.90;10.40;;;;;;;;;;6303498;22;20057;-84
2023/08/26 12:39:17;;;;;;;10.43;9.43;;;;;;;;;;6307826;22;20007;-83
2023/08/26 12:41:42;;;;;;;10.13;9.20;;;;;;;;;;6307979;22;20006;-84
2023/08/26 12:44:08;;;;;;;10.48;9.63;;;;;;;;;;6307934;22;20418;-83
2023/08/26 12:46:34;;;;;;;10.38;9.10;;;;;;;;;;6307639;22;20006;-84
2023/08/26 12:49:01;;;;;;;10.35;9.23;;;;;;;;;;6307827;22;20003;-84
2023/08/26 12:51:26;;;;;;;10.07;9.07;;;;;;;;;;6308838;22;20003;-84
2023/08/26 12:53:52;;;;;;;9.55;8.63;;;;;;;;;;6310138;22;20010;-85
2023/08/26 12:56:17;;;;;;;9.43;8.55;;;;;;;;;;6309797;22;20303;-86
2023/08/26 12:58:43;;;;;;;9.00;8.10;;;;;;;;;;6310039;22;19999;-84
2023/08/26 13:01:08;;;;;;;8.35;7.65;;;;;;;;;;6309984;22;19999;-84
2023/08/26 13:03:34;;;;;;;9.55;8.50;;;;;;;;;;6309838;22;20007;-85
2023/08/26 13:05:59;;;;;;;9.32;8.50;;;;;;;;;;6256605;22;20080;-86
2023/08/26 13:08:25;;;;;;;9.43;8.68;;;;;;;;;;6309761;22;20003;-84
2023/08/26 13:10:50;;;;;;;9.57;8.82;;;;;;;;;;6309806;22;19999;-84
2023/08/26 13:13:16;;;;;;;9.60;8.70;;;;;;;;;;6309831;22;20003;-83
2023/08/26 13:15:42;;;;;;;8.95;8.25;;;;;;;;;;6309637;22;20330;-83
2023/08/26 13:18:09;;;;;;;10.20;9.13;;;;;;;;;;6309594;22;20003;-83
2023/08/26 13:20:34;;;;;;;9.73;8.85;;;;;;;;;;6309827;22;20010;-83
2023/08/26 13:23:02;;;;;;;10.07;9.07;;;;;;;;;;6309633;22;20003;-84
2023/08/26 13:25:28;;;;;;;9.77;8.88;;;;;;;;;;6309563;22;20418;-88
2023/08/26 13:27:54;;;;;;;10.38;9.48;;;;;;;;;;6309852;22;20006;-85
2023/08/26 13:30:20;;;;;;;11.25;9.85;;;;;;;;;;6282421;22;20007;-86
2023/08/26 13:32:45;;;;;;;10.43;9.43;;;;;;;;;;6309479;22;20345;-88
2023/08/26 13:35:11;;;;;;;9.98;8.82;;;;;;;;;;6308083;22;20049;-85
2023/08/26 13:37:36;;;;;;;11.25;10.13;;;;;;;;;;6309273;22;20011;-85
2023/08/26 13:40:02;;;;;;;11.15;10.13;;;;;;;;;;6281775;22;20426;-85
2023/08/26 13:42:27;;;;;;;11.07;9.93;;;;;;;;;;6309261;22;20003;-85
2023/08/26 13:44:53;;;;;;;11.23;9.88;;;;;;;;;;6282176;22;20003;-86
2023/08/26 13:47:18;;;;;;;11.82;10.55;;;;;;;;;;6309456;22;20004;-86
2023/08/26 13:49:44;;;;;;;11.88;9.90;;;;;;;;;;6282024;22;20039;-86
2023/08/26 13:52:09;;;;;;;11.02;9.93;;;;;;;;;;6309317;22;20007;-86
2023/08/26 13:54:35;;;;;;;10.80;9.95;;;;;;;;;;6282122;22;20003;-86
2023/08/26 13:57:01;;;;;;;11.60;10.48;;;;;;;;;;6282115;22;20052;-87
2023/08/26 13:59:26;;;;;;;11.13;10.13;;;;;;;;;;6309455;22;20014;-89
2023/08/26 14:01:52;;;;;;;11.07;9.98;;;;;;;;;;6308692;22;20418;-86
2023/08/26 14:04:18;;;;;;;10.98;9.70;;;;;;;;;;6309044;22;20610;-86
2023/08/26 14:06:43;;;;;;;10.80;9.80;;;;;;;;;;6309557;22;20003;-88
2023/08/26 14:09:09;;;;;;;11.43;10.32;;;;;;;;;;6309326;22;20049;-88
2023/08/26 14:11:37;;;;;;;11.13;10.07;;;;;;;;;;6281827;22;20037;-87
2023/08/26 14:14:02;;;;;;;12.32;10.07;;;;;;;;;;6308958;22;20031;-86
2023/08/26 14:16:29;;;;;;;11.90;10.55;;;;;;;;;;6309027;22;20365;-87
2023/08/26 14:18:55;;;;;;;11.98;10.40;;;;;;;;;;6281564;22;20000;-87
2023/08/26 14:21:20;;;;;;;12.55;9.85;;;;;;;;;;6308837;22;19999;-88
2023/08/26 14:23:46;;;;;;;10.65;9.52;;;;;;;;;;6309210;22;20010;-89
2023/08/26 14:26:11;;;;;;;11.10;9.77;;;;;;;;;;6281593;22;20022;-88
2023/08/26 14:28:37;;;;;;;12.00;9.32;;;;;;;;;;6281727;22;20106;-90
2023/08/26 14:31:02;;;;;;;10.52;9.25;;;;;;;;;;6309002;22;20003;-86
2023/08/26 14:33:28;;;;;;;10.70;9.70;;;;;;;;;;6281483;22;20010;-87
2023/08/26 14:35:54;;;;;;;11.30;9.10;;;;;;;;;;6308568;22;20015;-86
2023/08/26 14:38:21;;;;;;;12.50;9.95;;;;;;;;;;6281443;22;20004;-86
2023/08/26 14:40:47;;;;;;;24.50;9.90;;;;;;;;;;6281434;22;19999;-87
2023/08/26 14:43:14;;;;;;;11.38;9.75;;;;;;;;;;6308799;22;20022;-85
2023/08/26 14:45:40;;;;;;;10.15;9.25;;;;;;;;;;6308369;22;20074;-88
2023/08/26 14:48:06;;;;;;;12.68;10.60;;;;;;;;;;6308477;22;20432;-87
2023/08/26 14:50:31;;;;;;;11.02;9.90;;;;;;;;;;6308776;22;20014;-82
2023/08/26 14:52:57;;;;;;;11.25;10.18;;;;;;;;;;6308427;22;20321;-84
2023/08/26 14:55:22;;;;;;;10.93;9.93;;;;;;;;;;6281170;22;20086;-83
2023/08/26 14:57:48;;;;;;;10.68;9.77;;;;;;;;;;6308375;22;20010;-80
2023/08/26 15:00:15;;;;;;;11.23;10.07;;;;;;;;;;6308336;22;20078;-81
2023/08/26 15:02:41;;;;;;;9.93;8.68;;;;;;;;;;6308211;22;20003;-82
2023/08/26 15:05:07;;;;;;;11.10;10.00;;;;;;;;;;6308509;22;20462;-82
2023/08/26 15:07:32;;;;;;;10.43;9.30;;;;;;;;;;6308645;22;20031;-82
2023/08/26 15:09:57;;;;;;;10.00;9.00;;;;;;;;;;6308264;22;20023;-82
2023/08/26 15:12:23;;;;;;;10.25;8.27;;;;;;;;;;6280830;22;20383;-82
2023/08/26 15:14:49;;;;;;;10.32;9.38;;;;;;;;;;6308393;22;20414;-82
2023/08/26 15:17:14;;;;;;;9.93;9.02;;;;;;;;;;6308203;22;20078;-82
2023/08/26 15:19:39;;;;;;;10.35;9.27;;;;;;;;;;6308431;22;20031;-82
2023/08/26 15:22:05;;;;;;;10.15;9.07;;;;;;;;;;6307880;22;20077;-82
2023/08/26 15:24:31;;;;;;;8.90;8.10;;;;;;;;;;6308400;22;20431;-82
2023/08/26 15:26:57;;;;;;;10.15;9.25;;;;;;;;;;6308268;22;20006;-83
2023/08/26 15:29:22;;;;;;;10.07;9.18;;;;;;;;;;6308240;22;20078;-83
2023/08/26 15:31:48;;;;;;;11.45;10.35;;;;;;;;;;6307981;22;19995;-82
2023/08/26 15:34:13;;;;;;;10.70;9.70;;;;;;;;;;6308045;22;20012;-82
2023/08/26 15:36:39;;;;;;;10.80;9.68;;;;;;;;;;6280668;22;20050;-82
2023/08/26 15:39:06;;;;;;;10.20;9.30;;;;;;;;;;6308294;22;20007;-82
2023/08/26 15:41:32;;;;;;;9.93;9.02;;;;;;;;;;6280637;22;20068;-84
2023/08/26 15:43:57;;;;;;;10.98;9.98;;;;;;;;;;6308012;22;19999;-83
2023/08/26 15:46:24;;;;;;;10.73;9.73;;;;;;;;;;6280565;22;20038;-83
2023/08/26 15:48:49;;;;;;;10.57;9.63;;;;;;;;;;6307879;22;20003;-83
2023/08/26 15:51:15;;;;;;;11.73;10.65;;;;;;;;;;6307877;22;20383;-81
2023/08/26 15:53:40;;;;;;;11.95;10.85;;;;;;;;;;6308098;22;20038;-81
2023/08/26 15:56:05;;;;;;;10.98;10.00;;;;;;;;;;6307639;22;19999;-83
2023/08/26 15:58:31;;;;;;;11.43;10.32;;;;;;;;;;6308048;22;20003;-82
2023/08/26 16:00:57;;;;;;;10.55;9.48;;;;;;;;;;6307672;22;20003;-84
2023/08/26 16:03:22;;;;;;;17.13;11.93;;;;;;;;;;6307988;22;20173;-87
2023/08/26 16:05:48;;;;;;;20.15;12.43;;;;;;;;;;6307797;22;20014;-82
2023/08/26 16:08:14;;;;;;;13.77;11.05;;;;;;;;;;6307800;22;20000;-85
2023/08/26 16:10:39;;;;;;;12.07;10.68;;;;;;;;;;6307812;22;20299;-85
2023/08/26 16:13:05;;;;;;;12.63;10.65;;;;;;;;;;6307495;22;19999;-84
2023/08/26 16:15:31;;;;;;;14.00;11.57;;;;;;;;;;6307720;22;20074;-85
2023/08/26 16:17:57;;;;;;;12.05;10.85;;;;;;;;;;6307717;22;20052;-83
2023/08/26 16:20:23;;;;;;;12.70;11.38;;;;;;;;;;6307831;22;20426;-83
2023/08/26 16:22:49;;;;;;;13.43;11.30;;;;;;;;;;6307615;22;20071;-82
2023/08/26 16:25:14;;;;;;;13.27;11.38;;;;;;;;;;6307659;22;20433;-82
2023/08/26 16:27:39;;;;;;;12.80;11.50;;;;;;;;;;6309993;22;20000;-81
2023/08/26 16:30:06;;;;;;;12.95;11.65;;;;;;;;;;6309761;22;20074;-82
2023/08/26 16:32:32;;;;;;;11.30;10.18;;;;;;;;;;6309364;22;20029;-82
2023/08/26 16:34:58;;;;;;;12.45;10.55;;;;;;;;;;6309672;22;20030;-82
2023/08/26 16:37:23;;;;;;;11.30;10.15;;;;;;;;;;6309885;22;20410;-82
2023/08/26 16:39:49;;;;;;;10.77;9.73;;;;;;;;;;6309639;22;20423;-81
2023/08/26 16:42:16;;;;;;;11.52;10.48;;;;;;;;;;6309402;22;20520;-81
2023/08/26 16:44:42;;;;;;;12.05;9.40;;;;;;;;;;6282336;22;20086;-82
2023/08/26 16:47:09;;;;;;;14.73;10.95;;;;;;;;;;6309712;22;20026;-83
2023/08/26 16:49:35;;;;;;;11.65;10.45;;;;;;;;;;6309942;22;20003;-81
2023/08/26 16:52:01;;;;;;;11.63;10.48;;;;;;;;;;6309349;22;20433;-82
2023/08/26 16:54:27;;;;;;;11.05;9.88;;;;;;;;;;6282259;22;20007;-82
2023/08/26 16:56:54;;;;;;;10.52;9.50;;;;;;;;;;6282308;22;20003;-82
2023/08/26 16:59:19;;;;;;;10.25;9.25;;;;;;;;;;6282004;22;20086;-81
2023/08/26 17:01:45;;;;;;;11.48;9.95;;;;;;;;;;6309626;22;20452;-79
2023/08/26 17:04:10;;;;;;;9.98;9.07;;;;;;;;;;6309976;22;20023;-81
2023/08/26 17:06:36;;;;;;;10.43;9.38;;;;;;;;;;6310131;22;20429;-79
2023/08/26 17:09:01;;;;;;;12.63;9.95;;;;;;;;;;6282676;22;20336;-80
2023/08/26 17:11:27;;;;;;;11.20;10.10;;;;;;;;;;6309843;22;20062;-80
2023/08/26 17:13:52;;;;;;;10.80;9.70;;;;;;;;;;6309835;22;20079;-80
2023/08/26 17:16:18;;;;;;;12.13;11.02;;;;;;;;;;6309695;22;20014;-83
2023/08/26 17:18:43;;;;;;;12.13;11.02;;;;;;;;;;6282599;22;20003;-83
2023/08/26 17:21:08;;;;;;;11.70;10.60;;;;;;;;;;6309876;22;20125;-88
2023/08/26 17:23:34;;;;;;;11.13;10.00;;;;;;;;;;6309692;22;20003;-88
2023/08/26 17:25:59;;;;;;;11.73;10.50;;;;;;;;;;6309672;22;20029;-84
2023/08/26 17:28:25;;;;;;;11.43;10.43;;;;;;;;;;6309421;22;19999;-85
2023/08/26 17:30:54;;;;;;;11.05;10.05;;;;;;;;;;6309401;22;20414;-85
2023/08/26 17:33:20;;;;;;;10.25;9.30;;;;;;;;;;6309832;22;20011;-83
2023/08/26 17:35:46;;;;;;;10.13;9.13;;;;;;;;;;6309094;22;20082;-84
2023/08/26 17:38:11;;;;;;;10.60;9.52;;;;;;;;;;6308995;22;20010;-84
2023/08/26 17:40:49;;;;;;;10.55;9.63;;;;;;;;;;6309513;22;20406;-84
2023/08/26 17:43:15;;;;;;;13.95;10.45;;;;;;;;;;6309310;22;20489;-84
2023/08/26 17:45:47;;;;;;;11.57;10.48;;;;;;;;;;6281899;22;20038;-84
2023/08/26 17:48:14;;;;;;;11.60;10.50;;;;;;;;;;6309274;22;20407;-84
2023/08/26 17:50:51;;;;;;;10.48;9.57;;;;;;;;;;6309329;22;20318;-84
2023/08/26 17:53:16;;;;;;;10.05;9.05;;;;;;;;;;6309346;22;20010;-84
2023/08/26 17:55:42;;;;;;;10.57;9.13;;;;;;;;;;6309191;22;20086;-84
2023/08/26 17:58:09;;;;;;;9.40;8.40;;;;;;;;;;6309113;22;20359;-85
2023/08/26 18:00:38;;;;;;;9.48;8.57;;;;;;;;;;6309513;22;20007;-85
2023/08/26 18:03:06;;;;;;;9.45;8.55;;;;;;;;;;6308912;22;19999;-85
2023/08/26 18:05:33;;;;;;;9.85;8.85;;;;;;;;;;6309112;22;20014;-85
2023/08/26 18:07:59;;;;;;;9.70;8.73;;;;;;;;;;6309178;22;20005;-84
2023/08/26 18:10:25;;;;;;;10.00;9.00;;;;;;;;;;6309061;22;20030;-84
2023/08/26 18:12:50;;;;;;;8.70;7.90;;;;;;;;;;6309218;22;19995;-83
2023/08/26 18:15:15;;;;;;;9.15;8.25;;;;;;;;;;6309044;22;20031;-82
2023/08/26 18:17:41;;;;;;;9.52;8.52;;;;;;;;;;6309204;22;20003;-82
2023/08/26 18:20:07;;;;;;;9.57;8.57;;;;;;;;;;6309171;22;20003;-80
2023/08/26 18:22:33;;;;;;;8.25;7.45;;;;;;;;;;6308824;22;20049;-83
2023/08/26 18:24:58;;;;;;;9.48;8.50;;;;;;;;;;6308767;22;20490;-85
2023/08/26 18:27:23;;;;;;;9.88;8.45;;;;;;;;;;6309123;22;20441;-85
2023/08/26 18:29:49;;;;;;;10.40;9.25;;;;;;;;;;6281476;22;20012;-80
2023/08/26 18:32:15;;;;;;;8.85;8.05;;;;;;;;;;6309056;22;20031;-85
2023/08/26 18:34:41;;;;;;;10.70;8.73;;;;;;;;;;6309182;22;20014;-84
2023/08/26 18:37:07;;;;;;;9.68;8.68;;;;;;;;;;6308651;22;20064;-85
2023/08/26 18:39:32;;;;;;;9.13;8.32;;;;;;;;;;6308984;22;20003;-86
2023/08/26 18:41:58;;;;;;;10.25;8.45;;;;;;;;;;6308918;22;20003;-84
2023/08/26 18:44:23;;;;;;;9.88;8.98;;;;;;;;;;6308690;22;19999;-88
2023/08/26 18:46:49;;;;;;;10.68;9.63;;;;;;;;;;6308922;22;20006;-86
2023/08/26 18:49:15;;;;;;;10.90;9.80;;;;;;;;;;6308399;22;19999;-85
2023/08/26 18:51:40;;;;;;;9.77;8.77;;;;;;;;;;6308724;22;20031;-85
2023/08/26 18:54:06;;;;;;;10.60;9.40;;;;;;;;;;6308638;22;20027;-86
2023/08/26 18:56:31;;;;;;;10.90;9.90;;;;;;;;;;6308292;22;20478;-86
2023/08/26 18:58:57;;;;;;;11.15;10.02;;;;;;;;;;6308506;22;20363;-85
2023/08/26 19:01:22;;;;;;;10.05;9.13;;;;;;;;;;6281056;22;20007;-85
2023/08/26 19:03:47;;;;;;;9.63;8.80;;;;;;;;;;6308456;22;20006;-85
2023/08/26 19:06:13;;;;;;;10.43;9.45;;;;;;;;;;6308338;22;20011;-85
2023/08/26 19:08:39;;;;;;;10.73;9.63;;;;;;;;;;6281103;22;20544;-85
2023/08/26 19:11:04;;;;;;;10.35;9.30;;;;;;;;;;6308784;22;20034;-85
2023/08/26 19:13:30;;;;;;;10.82;9.82;;;;;;;;;;6308492;22;20000;-85
2023/08/26 19:15:55;;;;;;;11.32;10.23;;;;;;;;;;6308446;22;20006;-86
2023/08/26 19:18:21;;;;;;;11.70;10.57;;;;;;;;;;6308656;22;20375;-86
2023/08/26 19:20:49;;;;;;;11.02;9.68;;;;;;;;;;6308508;22;20033;-86
2023/08/26 19:23:14;;;;;;;10.93;9.82;;;;;;;;;;6280888;22;20003;-86
2023/08/26 19:25:41;;;;;;;10.82;9.77;;;;;;;;;;6308151;22;20331;-84
2023/08/26 19:28:06;;;;;;;10.77;9.77;;;;;;;;;;6308542;22;20031;-84
2023/08/26 19:30:32;;;;;;;10.90;9.88;;;;;;;;;;6308396;22;20294;-84
2023/08/26 19:32:57;;;;;;;14.13;11.80;;;;;;;;;;6307976;22;20011;-84
2023/08/26 19:35:23;;;;;;;11.70;10.60;;;;;;;;;;6308139;22;20080;-84
2023/08/26 19:37:49;;;;;;;9.95;8.95;;;;;;;;;;6308162;22;20524;-84
2023/08/26 19:40:15;;;;;;;9.95;8.75;;;;;;;;;;6308194;22;20029;-84
2023/08/26 19:42:41;;;;;;;10.35;9.35;;;;;;;;;;6280688;22;20007;-84
2023/08/26 19:45:07;;;;;;;10.18;9.18;;;;;;;;;;6308280;22;19999;-84
2023/08/26 19:47:33;;;;;;;9.48;8.52;;;;;;;;;;6308193;22;20381;-84
2023/08/26 19:49:59;;;;;;;9.75;8.82;;;;;;;;;;6308302;22;20048;-83
2023/08/26 19:52:24;;;;;;;10.20;9.20;;;;;;;;;;6307861;22;20434;-84
2023/08/26 19:54:50;;;;;;;9.98;8.93;;;;;;;;;;6308135;22;20056;-84
2023/08/26 19:57:25;;;;;;;9.95;9.05;;;;;;;;;;6308326;22;19999;-85
2023/08/26 19:59:51;;;;;;;9.75;8.85;;;;;;;;;;6307988;22;20003;-84
2023/08/26 20:02:17;;;;;;;10.32;9.32;;;;;;;;;;6307849;22;20082;-84
2023/08/26 20:04:43;;;;;;;10.45;9.45;;;;;;;;;;6307887;22;20031;-84
2023/08/26 20:07:09;;;;;;;10.07;9.07;;;;;;;;;;6308064;22;20003;-83
2023/08/26 20:09:35;;;;;;;10.07;9.02;;;;;;;;;;6308144;22;20078;-84
2023/08/26 20:12:00;;;;;;;10.55;9.30;;;;;;;;;;6308211;22;20026;-84
2023/08/26 20:14:26;;;;;;;10.80;9.65;;;;;;;;;;6308224;22;20003;-84
2023/08/26 20:16:51;;;;;;;11.10;10.05;;;;;;;;;;6307957;22;20415;-84
2023/08/26 20:19:16;;;;;;;9.93;8.93;;;;;;;;;;6307954;22;20326;-84
2023/08/26 20:21:42;;;;;;;11.05;9.95;;;;;;;;;;6307807;22;20000;-83
2023/08/26 20:24:07;;;;;;;10.70;9.60;;;;;;;;;;6308052;22;20003;-83
2023/08/26 20:26:33;;;;;;;11.65;10.15;;;;;;;;;;6308056;22;20039;-83
2023/08/26 20:28:59;;;;;;;9.88;8.88;;;;;;;;;;6307831;22;19995;-84
2023/08/26 20:31:25;;;;;;;10.45;9.45;;;;;;;;;;6280448;22;20006;-83
2023/08/26 20:33:50;;;;;;;13.15;11.15;;;;;;;;;;6308566;22;20082;-84
2023/08/26 20:36:16;;;;;;;10.88;9.93;;;;;;;;;;6307557;22;20026;-84
2023/08/26 20:38:41;;;;;;;10.43;9.32;;;;;;;;;;6307859;22;20003;-84
2023/08/26 20:41:07;;;;;;;10.93;9.85;;;;;;;;;;6307696;22;20003;-84
2023/08/26 20:43:33;;;;;;;11.93;10.82;;;;;;;;;;6307912;22;20035;-84
2023/08/26 20:45:59;;;;;;;10.90;9.80;;;;;;;;;;6307655;22;20010;-84
2023/08/26 20:48:26;;;;;;;11.80;10.60;;;;;;;;;;6307892;22;20006;-84
2023/08/26 20:50:52;;;;;;;11.18;10.07;;;;;;;;;;6307762;22;20003;-84
2023/08/26 20:53:18;;;;;;;11.73;10.63;;;;;;;;;;6307789;22;20003;-84
2023/08/26 20:55:44;;;;;;;11.27;10.18;;;;;;;;;;6308044;22;20414;-84
2023/08/26 20:58:10;;;;;;;11.32;10.18;;;;;;;;;;6307855;22;20482;-84
2023/08/26 21:00:36;;;;;;;11.30;10.20;;;;;;;;;;6280472;22;20014;-84
2023/08/26 21:03:01;;;;;;;10.73;9.82;;;;;;;;;;6307926;22;19999;-84
2023/08/26 21:05:29;;;;;;;11.65;10.45;;;;;;;;;;6307497;22;20029;-83
2023/08/26 21:07:55;;;;;;;10.52;9.63;;;;;;;;;;6307885;22;19999;-84
2023/08/26 21:10:21;;;;;;;11.25;10.25;;;;;;;;;;6307873;22;20494;-85
2023/08/26 21:12:48;;;;;;;11.20;10.10;;;;;;;;;;6308841;22;20418;-85
2023/08/26 21:15:14;;;;;;;12.70;10.43;;;;;;;;;;6309675;22;19999;-84
2023/08/26 21:17:40;;;;;;;10.93;9.98;;;;;;;;;;6282236;22;20342;-85
2023/08/26 21:20:07;;;;;;;11.38;10.05;;;;;;;;;;6309496;22;20418;-85
2023/08/26 21:22:37;;;;;;;10.77;9.80;;;;;;;;;;6309348;22;20418;-85
2023/08/26 21:25:06;;;;;;;12.13;10.90;;;;;;;;;;6309702;22;20500;-85
2023/08/26 21:27:32;;;;;;;;;;;;;;;;;;6310181;22;20013;-84
2023/08/26 21:29:58;;;;;;;12.18;10.32;;;;;;;;;;6309580;22;19914;-85
2023/08/26 21:32:23;;;;;;;12.38;10.88;;;;;;;;;;6309301;22;20304;-86
2023/08/26 21:34:49;;;;;;;11.73;10.63;;;;;;;;;;6310034;22;20078;-85
2023/08/26 21:37:15;;;;;;;12.52;10.77;;;;;;;;;;6309361;22;20053;-85
2023/08/26 21:39:40;;;;;;;11.50;10.50;;;;;;;;;;6309352;22;20078;-86
